sensor_id;sensor_type;location;lat;lon;timestamp;P1;durP1;ratioP1;P2;durP2;ratioP2
71667;SDS011;59504;54.806;9.640;2023-02-28T00:00:56;4.90;;;1.95;;
71667;SDS011;59504;54.806;9.640;2023-02-28T00:03:16;4.88;;;1.77;;
71667;SDS011;59504;54.806;9.640;2023-02-28T00:05:35;6.22;;;2.15;;
71667;SDS011;59504;54.806;9.640;2023-02-28T00:07:54;4.78;;;2.42;;
71667;SDS011;59504;54.806;9.640;2023-02-28T00:10:15;7.10;;;2.83;;
71667;SDS011;59504;54.806;9.640;2023-02-28T00:12:40;6.90;;;2.50;;
71667;SDS011;59504;54.806;9.640;2023-02-28T00:14:59;7.72;;;2.80;;
71667;SDS011;59504;54.806;9.640;2023-02-28T00:17:19;9.30;;;2.45;;
71667;SDS011;59504;54.806;9.640;2023-02-28T00:19:40;5.70;;;2.60;;
71667;SDS011;59504;54.806;9.640;2023-02-28T00:21:59;8.95;;;2.53;;
71667;SDS011;59504;54.806;9.640;2023-02-28T00:24:18;7.75;;;3.15;;
71667;SDS011;59504;54.806;9.640;2023-02-28T00:26:37;6.60;;;3.15;;
71667;SDS011;59504;54.806;9.640;2023-02-28T00:28:56;8.70;;;3.10;;
71667;SDS011;59504;54.806;9.640;2023-02-28T00:31:15;6.30;;;2.88;;
71667;SDS011;59504;54.806;9.640;2023-02-28T00:33:35;8.00;;;3.03;;
71667;SDS011;59504;54.806;9.640;2023-02-28T00:36:01;12.18;;;3.92;;
71667;SDS011;59504;54.806;9.640;2023-02-28T00:38:28;7.45;;;3.58;;
71667;SDS011;59504;54.806;9.640;2023-02-28T00:40:48;10.40;;;3.88;;
71667;SDS011;59504;54.806;9.640;2023-02-28T00:43:07;12.50;;;3.42;;
71667;SDS011;59504;54.806;9.640;2023-02-28T00:45:26;10.05;;;3.67;;
71667;SDS011;59504;54.806;9.640;2023-02-28T00:47:45;7.85;;;3.53;;
71667;SDS011;59504;54.806;9.640;2023-02-28T00:50:08;8.05;;;3.83;;
71667;SDS011;59504;54.806;9.640;2023-02-28T00:52:28;7.82;;;4.50;;
71667;SDS011;59504;54.806;9.640;2023-02-28T00:54:47;10.05;;;4.78;;
71667;SDS011;59504;54.806;9.640;2023-02-28T00:57:06;8.88;;;4.07;;
71667;SDS011;59504;54.806;9.640;2023-02-28T00:59:25;11.90;;;4.72;;
71667;SDS011;59504;54.806;9.640;2023-02-28T01:01:45;9.75;;;4.68;;
71667;SDS011;59504;54.806;9.640;2023-02-28T01:04:04;14.95;;;5.07;;
71667;SDS011;59504;54.806;9.640;2023-02-28T01:06:23;10.20;;;4.15;;
71667;SDS011;59504;54.806;9.640;2023-02-28T01:08:43;11.63;;;5.40;;
71667;SDS011;59504;54.806;9.640;2023-02-28T01:11:12;11.60;;;4.30;;
71667;SDS011;59504;54.806;9.640;2023-02-28T01:13:33;12.18;;;4.88;;
71667;SDS011;59504;54.806;9.640;2023-02-28T01:15:54;14.95;;;5.40;;
71667;SDS011;59504;54.806;9.640;2023-02-28T01:18:14;12.95;;;5.10;;
71667;SDS011;59504;54.806;9.640;2023-02-28T01:20:33;11.75;;;5.15;;
71667;SDS011;59504;54.806;9.640;2023-02-28T01:22:55;12.60;;;5.43;;
71667;SDS011;59504;54.806;9.640;2023-02-28T01:25:14;17.05;;;5.75;;
71667;SDS011;59504;54.806;9.640;2023-02-28T01:27:34;9.70;;;4.97;;
71667;SDS011;59504;54.806;9.640;2023-02-28T01:29:54;15.70;;;5.13;;
71667;SDS011;59504;54.806;9.640;2023-02-28T01:32:13;14.80;;;5.28;;
71667;SDS011;59504;54.806;9.640;2023-02-28T01:34:32;9.23;;;5.20;;
71667;SDS011;59504;54.806;9.640;2023-02-28T01:36:51;12.68;;;5.28;;
71667;SDS011;59504;54.806;9.640;2023-02-28T01:39:10;14.98;;;6.05;;
71667;SDS011;59504;54.806;9.640;2023-02-28T01:41:32;13.00;;;5.40;;
71667;SDS011;59504;54.806;9.640;2023-02-28T01:46:17;12.00;;;5.30;;
71667;SDS011;59504;54.806;9.640;2023-02-28T01:48:43;16.00;;;5.30;;
71667;SDS011;59504;54.806;9.640;2023-02-28T01:51:05;9.85;;;4.70;;
71667;SDS011;59504;54.806;9.640;2023-02-28T01:53:31;10.55;;;4.75;;
71667;SDS011;59504;54.806;9.640;2023-02-28T01:55:53;8.30;;;4.93;;
71667;SDS011;59504;54.806;9.640;2023-02-28T01:58:13;14.55;;;5.00;;
71667;SDS011;59504;54.806;9.640;2023-02-28T02:00:33;11.73;;;5.30;;
71667;SDS011;59504;54.806;9.640;2023-02-28T02:02:57;9.43;;;4.88;;
71667;SDS011;59504;54.806;9.640;2023-02-28T02:05:23;8.98;;;4.65;;
71667;SDS011;59504;54.806;9.640;2023-02-28T02:07:56;11.90;;;5.00;;
71667;SDS011;59504;54.806;9.640;2023-02-28T02:10:21;9.88;;;5.20;;
71667;SDS011;59504;54.806;9.640;2023-02-28T02:12:59;10.50;;;5.10;;
71667;SDS011;59504;54.806;9.640;2023-02-28T02:21:16;9.38;;;4.65;;
71667;SDS011;59504;54.806;9.640;2023-02-28T02:26:19;10.65;;;5.32;;
71667;SDS011;59504;54.806;9.640;2023-02-28T02:34:20;9.55;;;4.85;;
71667;SDS011;59504;54.806;9.640;2023-02-28T02:37:08;13.48;;;5.20;;
71667;SDS011;59504;54.806;9.640;2023-02-28T02:39:38;12.32;;;5.07;;
71667;SDS011;59504;54.806;9.640;2023-02-28T02:42:00;13.10;;;4.70;;
71667;SDS011;59504;54.806;9.640;2023-02-28T02:46:55;13.32;;;5.32;;
71667;SDS011;59504;54.806;9.640;2023-02-28T02:49:30;13.60;;;5.40;;
71667;SDS011;59504;54.806;9.640;2023-02-28T02:51:51;12.20;;;5.05;;
71667;SDS011;59504;54.806;9.640;2023-02-28T02:54:15;13.23;;;6.35;;
71667;SDS011;59504;54.806;9.640;2023-02-28T02:56:38;14.07;;;5.70;;
71667;SDS011;59504;54.806;9.640;2023-02-28T02:59:02;12.35;;;5.55;;
71667;SDS011;59504;54.806;9.640;2023-02-28T03:01:25;13.82;;;5.93;;
71667;SDS011;59504;54.806;9.640;2023-02-28T03:03:48;11.68;;;5.70;;
71667;SDS011;59504;54.806;9.640;2023-02-28T03:06:08;11.55;;;5.63;;
71667;SDS011;59504;54.806;9.640;2023-02-28T03:08:29;11.00;;;5.30;;
71667;SDS011;59504;54.806;9.640;2023-02-28T03:10:55;11.20;;;5.78;;
71667;SDS011;59504;54.806;9.640;2023-02-28T03:13:36;10.63;;;5.60;;
71667;SDS011;59504;54.806;9.640;2023-02-28T03:19:02;12.85;;;5.18;;
71667;SDS011;59504;54.806;9.640;2023-02-28T03:24:16;11.82;;;5.57;;
71667;SDS011;59504;54.806;9.640;2023-02-28T03:26:45;14.82;;;6.20;;
71667;SDS011;59504;54.806;9.640;2023-02-28T03:31:53;14.00;;;5.75;;
71667;SDS011;59504;54.806;9.640;2023-02-28T03:34:22;14.68;;;5.88;;
71667;SDS011;59504;54.806;9.640;2023-02-28T03:36:55;10.27;;;5.82;;
71667;SDS011;59504;54.806;9.640;2023-02-28T03:39:20;16.90;;;6.70;;
71667;SDS011;59504;54.806;9.640;2023-02-28T03:41:47;12.82;;;6.28;;
71667;SDS011;59504;54.806;9.640;2023-02-28T03:44:12;10.13;;;5.15;;
71667;SDS011;59504;54.806;9.640;2023-02-28T03:46:42;14.10;;;6.50;;
71667;SDS011;59504;54.806;9.640;2023-02-28T03:49:17;16.45;;;5.70;;
71667;SDS011;59504;54.806;9.640;2023-02-28T03:51:40;17.90;;;6.25;;
71667;SDS011;59504;54.806;9.640;2023-02-28T03:54:03;13.27;;;5.85;;
71667;SDS011;59504;54.806;9.640;2023-02-28T03:56:34;16.45;;;6.53;;
71667;SDS011;59504;54.806;9.640;2023-02-28T03:59:04;14.38;;;6.03;;
71667;SDS011;59504;54.806;9.640;2023-02-28T04:01:38;17.52;;;6.32;;
71667;SDS011;59504;54.806;9.640;2023-02-28T04:03:59;17.33;;;5.72;;
71667;SDS011;59504;54.806;9.640;2023-02-28T04:06:20;16.05;;;6.22;;
71667;SDS011;59504;54.806;9.640;2023-02-28T04:08:41;14.48;;;6.25;;
71667;SDS011;59504;54.806;9.640;2023-02-28T04:11:01;13.85;;;6.03;;
71667;SDS011;59504;54.806;9.640;2023-02-28T04:13:24;13.48;;;6.55;;
71667;SDS011;59504;54.806;9.640;2023-02-28T04:15:44;15.55;;;6.97;;
71667;SDS011;59504;54.806;9.640;2023-02-28T04:18:03;20.35;;;7.40;;
71667;SDS011;59504;54.806;9.640;2023-02-28T04:20:22;20.08;;;7.40;;
71667;SDS011;59504;54.806;9.640;2023-02-28T04:22:41;22.90;;;8.25;;
71667;SDS011;59504;54.806;9.640;2023-02-28T04:25:00;19.73;;;8.43;;
71667;SDS011;59504;54.806;9.640;2023-02-28T04:27:20;18.17;;;8.35;;
71667;SDS011;59504;54.806;9.640;2023-02-28T04:29:40;19.75;;;8.93;;
71667;SDS011;59504;54.806;9.640;2023-02-28T04:32:03;17.55;;;8.85;;
71667;SDS011;59504;54.806;9.640;2023-02-28T04:34:23;16.88;;;7.35;;
71667;SDS011;59504;54.806;9.640;2023-02-28T04:36:43;18.83;;;8.05;;
71667;SDS011;59504;54.806;9.640;2023-02-28T04:39:02;15.77;;;7.40;;
71667;SDS011;59504;54.806;9.640;2023-02-28T04:41:22;17.23;;;7.43;;
71667;SDS011;59504;54.806;9.640;2023-02-28T04:43:42;17.75;;;8.00;;
71667;SDS011;59504;54.806;9.640;2023-02-28T04:46:03;18.98;;;8.32;;
71667;SDS011;59504;54.806;9.640;2023-02-28T04:48:24;17.55;;;7.47;;
71667;SDS011;59504;54.806;9.640;2023-02-28T04:50:44;14.15;;;7.05;;
71667;SDS011;59504;54.806;9.640;2023-02-28T04:53:03;17.85;;;8.02;;
71667;SDS011;59504;54.806;9.640;2023-02-28T04:55:22;20.55;;;7.63;;
71667;SDS011;59504;54.806;9.640;2023-02-28T04:57:41;16.25;;;7.25;;
71667;SDS011;59504;54.806;9.640;2023-02-28T05:00:00;17.23;;;7.18;;
71667;SDS011;59504;54.806;9.640;2023-02-28T05:02:19;17.30;;;8.35;;
71667;SDS011;59504;54.806;9.640;2023-02-28T05:04:39;17.65;;;7.90;;
71667;SDS011;59504;54.806;9.640;2023-02-28T05:06:58;17.23;;;8.02;;
71667;SDS011;59504;54.806;9.640;2023-02-28T05:09:18;19.27;;;7.93;;
71667;SDS011;59504;54.806;9.640;2023-02-28T05:11:38;19.83;;;8.50;;
71667;SDS011;59504;54.806;9.640;2023-02-28T05:13:58;21.42;;;9.30;;
71667;SDS011;59504;54.806;9.640;2023-02-28T05:16:17;17.05;;;7.30;;
71667;SDS011;59504;54.806;9.640;2023-02-28T05:18:37;21.13;;;8.57;;
71667;SDS011;59504;54.806;9.640;2023-02-28T05:20:57;21.95;;;8.20;;
71667;SDS011;59504;54.806;9.640;2023-02-28T05:23:16;22.42;;;8.50;;
71667;SDS011;59504;54.806;9.640;2023-02-28T05:25:38;19.52;;;8.82;;
71667;SDS011;59504;54.806;9.640;2023-02-28T05:27:58;21.98;;;8.02;;
71667;SDS011;59504;54.806;9.640;2023-02-28T05:30:17;22.08;;;8.73;;
71667;SDS011;59504;54.806;9.640;2023-02-28T05:32:37;22.95;;;9.18;;
71667;SDS011;59504;54.806;9.640;2023-02-28T05:34:57;19.60;;;8.38;;
71667;SDS011;59504;54.806;9.640;2023-02-28T05:37:16;19.83;;;8.27;;
71667;SDS011;59504;54.806;9.640;2023-02-28T05:39:35;22.23;;;9.00;;
71667;SDS011;59504;54.806;9.640;2023-02-28T05:41:54;22.33;;;9.95;;
71667;SDS011;59504;54.806;9.640;2023-02-28T05:44:13;22.85;;;8.77;;
71667;SDS011;59504;54.806;9.640;2023-02-28T05:46:34;19.98;;;8.23;;
71667;SDS011;59504;54.806;9.640;2023-02-28T05:48:53;22.48;;;8.43;;
71667;SDS011;59504;54.806;9.640;2023-02-28T05:51:14;20.10;;;8.77;;
71667;SDS011;59504;54.806;9.640;2023-02-28T05:53:34;21.25;;;8.10;;
71667;SDS011;59504;54.806;9.640;2023-02-28T05:55:53;22.58;;;9.98;;
71667;SDS011;59504;54.806;9.640;2023-02-28T05:58:13;24.63;;;9.70;;
71667;SDS011;59504;54.806;9.640;2023-02-28T06:00:32;23.02;;;9.68;;
71667;SDS011;59504;54.806;9.640;2023-02-28T06:02:51;26.73;;;9.57;;
71667;SDS011;59504;54.806;9.640;2023-02-28T06:05:16;27.85;;;10.57;;
71667;SDS011;59504;54.806;9.640;2023-02-28T06:07:36;20.55;;;8.70;;
71667;SDS011;59504;54.806;9.640;2023-02-28T06:09:55;23.52;;;9.88;;
71667;SDS011;59504;54.806;9.640;2023-02-28T06:12:14;24.65;;;10.02;;
71667;SDS011;59504;54.806;9.640;2023-02-28T06:14:33;24.42;;;10.07;;
71667;SDS011;59504;54.806;9.640;2023-02-28T06:16:53;22.83;;;9.48;;
71667;SDS011;59504;54.806;9.640;2023-02-28T06:19:12;20.38;;;9.20;;
71667;SDS011;59504;54.806;9.640;2023-02-28T06:21:32;21.80;;;9.27;;
71667;SDS011;59504;54.806;9.640;2023-02-28T06:23:51;24.67;;;10.32;;
71667;SDS011;59504;54.806;9.640;2023-02-28T06:26:10;20.17;;;8.77;;
71667;SDS011;59504;54.806;9.640;2023-02-28T06:28:30;16.83;;;9.25;;
71667;SDS011;59504;54.806;9.640;2023-02-28T06:30:48;19.92;;;9.35;;
71667;SDS011;59504;54.806;9.640;2023-02-28T06:33:08;24.00;;;8.85;;
71667;SDS011;59504;54.806;9.640;2023-02-28T06:35:27;25.45;;;9.43;;
71667;SDS011;59504;54.806;9.640;2023-02-28T06:37:46;15.63;;;7.78;;
71667;SDS011;59504;54.806;9.640;2023-02-28T06:40:05;20.08;;;7.82;;
71667;SDS011;59504;54.806;9.640;2023-02-28T06:42:25;21.38;;;8.43;;
71667;SDS011;59504;54.806;9.640;2023-02-28T06:44:47;26.40;;;8.48;;
71667;SDS011;59504;54.806;9.640;2023-02-28T06:47:06;23.08;;;8.15;;
71667;SDS011;59504;54.806;9.640;2023-02-28T06:49:25;19.08;;;8.48;;
71667;SDS011;59504;54.806;9.640;2023-02-28T06:51:44;19.98;;;8.93;;
71667;SDS011;59504;54.806;9.640;2023-02-28T06:54:04;18.42;;;8.23;;
71667;SDS011;59504;54.806;9.640;2023-02-28T06:56:24;18.30;;;8.02;;
71667;SDS011;59504;54.806;9.640;2023-02-28T06:58:47;23.35;;;9.00;;
71667;SDS011;59504;54.806;9.640;2023-02-28T07:03:27;16.55;;;7.22;;
71667;SDS011;59504;54.806;9.640;2023-02-28T07:05:46;17.70;;;8.07;;
71667;SDS011;59504;54.806;9.640;2023-02-28T07:08:05;27.35;;;9.07;;
71667;SDS011;59504;54.806;9.640;2023-02-28T07:10:24;35.22;;;11.38;;
71667;SDS011;59504;54.806;9.640;2023-02-28T07:12:43;20.60;;;9.98;;
71667;SDS011;59504;54.806;9.640;2023-02-28T07:15:03;20.77;;;9.55;;
71667;SDS011;59504;54.806;9.640;2023-02-28T07:17:23;24.95;;;9.73;;
71667;SDS011;59504;54.806;9.640;2023-02-28T07:19:43;26.25;;;10.52;;
71667;SDS011;59504;54.806;9.640;2023-02-28T07:22:02;30.80;;;11.98;;
71667;SDS011;59504;54.806;9.640;2023-02-28T07:24:21;21.17;;;10.25;;
71667;SDS011;59504;54.806;9.640;2023-02-28T07:26:42;23.60;;;9.82;;
71667;SDS011;59504;54.806;9.640;2023-02-28T07:29:01;23.70;;;11.35;;
71667;SDS011;59504;54.806;9.640;2023-02-28T07:31:21;28.40;;;10.27;;
71667;SDS011;59504;54.806;9.640;2023-02-28T07:33:40;31.77;;;10.68;;
71667;SDS011;59504;54.806;9.640;2023-02-28T07:36:03;25.13;;;10.40;;
71667;SDS011;59504;54.806;9.640;2023-02-28T07:38:24;21.10;;;10.55;;
71667;SDS011;59504;54.806;9.640;2023-02-28T07:40:43;23.42;;;9.70;;
71667;SDS011;59504;54.806;9.640;2023-02-28T07:43:03;22.23;;;10.50;;
71667;SDS011;59504;54.806;9.640;2023-02-28T07:45:22;25.17;;;10.57;;
71667;SDS011;59504;54.806;9.640;2023-02-28T07:47:42;26.73;;;11.15;;
71667;SDS011;59504;54.806;9.640;2023-02-28T07:50:02;22.35;;;11.98;;
71667;SDS011;59504;54.806;9.640;2023-02-28T07:52:24;33.83;;;11.52;;
71667;SDS011;59504;54.806;9.640;2023-02-28T07:54:47;26.83;;;11.00;;
71667;SDS011;59504;54.806;9.640;2023-02-28T07:57:06;20.48;;;10.93;;
71667;SDS011;59504;54.806;9.640;2023-02-28T07:59:25;28.27;;;11.50;;
71667;SDS011;59504;54.806;9.640;2023-02-28T08:01:44;27.45;;;12.38;;
71667;SDS011;59504;54.806;9.640;2023-02-28T08:04:03;24.83;;;11.50;;
71667;SDS011;59504;54.806;9.640;2023-02-28T08:06:23;27.60;;;12.35;;
71667;SDS011;59504;54.806;9.640;2023-02-28T08:08:45;30.27;;;11.80;;
71667;SDS011;59504;54.806;9.640;2023-02-28T08:11:04;27.15;;;12.40;;
71667;SDS011;59504;54.806;9.640;2023-02-28T08:13:23;28.52;;;13.20;;
71667;SDS011;59504;54.806;9.640;2023-02-28T08:15:43;24.38;;;11.80;;
71667;SDS011;59504;54.806;9.640;2023-02-28T08:18:03;21.90;;;12.30;;
71667;SDS011;59504;54.806;9.640;2023-02-28T08:20:23;29.10;;;12.52;;
71667;SDS011;59504;54.806;9.640;2023-02-28T08:22:44;32.20;;;13.23;;
71667;SDS011;59504;54.806;9.640;2023-02-28T08:25:03;28.23;;;13.50;;
71667;SDS011;59504;54.806;9.640;2023-02-28T08:27:23;30.25;;;12.98;;
71667;SDS011;59504;54.806;9.640;2023-02-28T08:29:42;31.17;;;14.65;;
71667;SDS011;59504;54.806;9.640;2023-02-28T08:32:01;29.85;;;14.25;;
71667;SDS011;59504;54.806;9.640;2023-02-28T08:34:20;28.55;;;13.48;;
71667;SDS011;59504;54.806;9.640;2023-02-28T08:36:39;34.42;;;13.43;;
71667;SDS011;59504;54.806;9.640;2023-02-28T08:38:59;27.83;;;12.50;;
71667;SDS011;59504;54.806;9.640;2023-02-28T08:41:18;28.08;;;12.90;;
71667;SDS011;59504;54.806;9.640;2023-02-28T08:43:38;28.73;;;12.82;;
71667;SDS011;59504;54.806;9.640;2023-02-28T08:45:58;27.20;;;13.20;;
71667;SDS011;59504;54.806;9.640;2023-02-28T08:48:18;35.33;;;14.35;;
71667;SDS011;59504;54.806;9.640;2023-02-28T08:50:37;29.75;;;12.48;;
71667;SDS011;59504;54.806;9.640;2023-02-28T08:52:56;28.58;;;13.68;;
71667;SDS011;59504;54.806;9.640;2023-02-28T08:55:15;29.90;;;13.68;;
71667;SDS011;59504;54.806;9.640;2023-02-28T08:57:34;28.38;;;13.23;;
71667;SDS011;59504;54.806;9.640;2023-02-28T08:59:54;24.42;;;12.68;;
71667;SDS011;59504;54.806;9.640;2023-02-28T09:02:13;26.25;;;12.77;;
71667;SDS011;59504;54.806;9.640;2023-02-28T09:04:33;26.65;;;12.77;;
71667;SDS011;59504;54.806;9.640;2023-02-28T09:06:52;31.35;;;12.98;;
71667;SDS011;59504;54.806;9.640;2023-02-28T09:09:12;27.42;;;11.45;;
71667;SDS011;59504;54.806;9.640;2023-02-28T09:11:31;24.73;;;12.60;;
71667;SDS011;59504;54.806;9.640;2023-02-28T09:13:50;24.90;;;11.27;;
71667;SDS011;59504;54.806;9.640;2023-02-28T09:16:10;25.88;;;11.45;;
71667;SDS011;59504;54.806;9.640;2023-02-28T09:18:31;23.95;;;10.60;;
71667;SDS011;59504;54.806;9.640;2023-02-28T09:20:56;22.70;;;11.18;;
71667;SDS011;59504;54.806;9.640;2023-02-28T09:23:16;23.05;;;10.88;;
71667;SDS011;59504;54.806;9.640;2023-02-28T09:25:36;20.77;;;10.18;;
71667;SDS011;59504;54.806;9.640;2023-02-28T09:27:56;23.27;;;10.30;;
71667;SDS011;59504;54.806;9.640;2023-02-28T09:30:15;24.13;;;9.80;;
71667;SDS011;59504;54.806;9.640;2023-02-28T09:32:34;21.98;;;10.18;;
71667;SDS011;59504;54.806;9.640;2023-02-28T09:34:54;16.48;;;9.20;;
71667;SDS011;59504;54.806;9.640;2023-02-28T09:37:13;19.92;;;9.65;;
71667;SDS011;59504;54.806;9.640;2023-02-28T09:39:32;19.13;;;9.82;;
71667;SDS011;59504;54.806;9.640;2023-02-28T09:41:51;21.27;;;8.77;;
71667;SDS011;59504;54.806;9.640;2023-02-28T09:44:12;16.60;;;8.88;;
71667;SDS011;59504;54.806;9.640;2023-02-28T09:46:40;22.58;;;9.48;;
71667;SDS011;59504;54.806;9.640;2023-02-28T09:49:04;21.80;;;10.13;;
71667;SDS011;59504;54.806;9.640;2023-02-28T09:54:02;19.90;;;9.13;;
71667;SDS011;59504;54.806;9.640;2023-02-28T09:56:24;18.88;;;9.00;;
71667;SDS011;59504;54.806;9.640;2023-02-28T10:01:29;18.75;;;9.57;;
71667;SDS011;59504;54.806;9.640;2023-02-28T10:03:56;20.83;;;10.05;;
71667;SDS011;59504;54.806;9.640;2023-02-28T10:06:26;19.63;;;9.43;;
71667;SDS011;59504;54.806;9.640;2023-02-28T10:09:08;22.45;;;8.75;;
71667;SDS011;59504;54.806;9.640;2023-02-28T10:11:34;18.45;;;8.45;;
71667;SDS011;59504;54.806;9.640;2023-02-28T10:14:00;18.13;;;9.25;;
71667;SDS011;59504;54.806;9.640;2023-02-28T10:19:12;18.80;;;8.10;;
71667;SDS011;59504;54.806;9.640;2023-02-28T10:21:40;14.68;;;6.85;;
71667;SDS011;59504;54.806;9.640;2023-02-28T10:24:19;17.85;;;6.82;;
71667;SDS011;59504;54.806;9.640;2023-02-28T10:26:46;14.88;;;7.22;;
71667;SDS011;59504;54.806;9.640;2023-02-28T10:29:07;16.42;;;6.82;;
71667;SDS011;59504;54.806;9.640;2023-02-28T10:31:28;17.23;;;7.18;;
71667;SDS011;59504;54.806;9.640;2023-02-28T10:33:48;15.75;;;7.25;;
71667;SDS011;59504;54.806;9.640;2023-02-28T10:36:08;13.80;;;6.82;;
71667;SDS011;59504;54.806;9.640;2023-02-28T10:38:33;12.68;;;6.40;;
71667;SDS011;59504;54.806;9.640;2023-02-28T10:41:17;13.53;;;6.33;;
71667;SDS011;59504;54.806;9.640;2023-02-28T10:43:46;13.02;;;6.97;;
71667;SDS011;59504;54.806;9.640;2023-02-28T10:46:11;16.80;;;7.38;;
71667;SDS011;59504;54.806;9.640;2023-02-28T10:48:44;12.88;;;6.70;;
71667;SDS011;59504;54.806;9.640;2023-02-28T10:51:10;11.55;;;5.65;;
71667;SDS011;59504;54.806;9.640;2023-02-28T10:53:33;14.15;;;6.47;;
71667;SDS011;59504;54.806;9.640;2023-02-28T10:56:00;11.65;;;5.90;;
71667;SDS011;59504;54.806;9.640;2023-02-28T10:58:23;14.40;;;5.63;;
71667;SDS011;59504;54.806;9.640;2023-02-28T11:00:44;13.38;;;5.03;;
71667;SDS011;59504;54.806;9.640;2023-02-28T11:03:09;12.93;;;4.85;;
71667;SDS011;59504;54.806;9.640;2023-02-28T11:05:48;14.10;;;5.32;;
71667;SDS011;59504;54.806;9.640;2023-02-28T11:10:35;10.25;;;4.40;;
71667;SDS011;59504;54.806;9.640;2023-02-28T11:12:55;8.40;;;5.00;;
71667;SDS011;59504;54.806;9.640;2023-02-28T11:17:41;12.23;;;5.45;;
71667;SDS011;59504;54.806;9.640;2023-02-28T11:20:02;12.18;;;5.50;;
71667;SDS011;59504;54.806;9.640;2023-02-28T11:22:26;13.30;;;5.45;;
71667;SDS011;59504;54.806;9.640;2023-02-28T11:24:49;16.17;;;5.65;;
71667;SDS011;59504;54.806;9.640;2023-02-28T11:29:49;14.02;;;6.25;;
71667;SDS011;59504;54.806;9.640;2023-02-28T11:34:40;14.57;;;6.68;;
71667;SDS011;59504;54.806;9.640;2023-02-28T11:36:59;11.77;;;6.60;;
71667;SDS011;59504;54.806;9.640;2023-02-28T11:39:33;13.45;;;6.72;;
71667;SDS011;59504;54.806;9.640;2023-02-28T11:42:11;12.32;;;6.20;;
71667;SDS011;59504;54.806;9.640;2023-02-28T11:51:33;13.57;;;6.22;;
71667;SDS011;59504;54.806;9.640;2023-02-28T11:56:47;14.77;;;6.50;;
71667;SDS011;59504;54.806;9.640;2023-02-28T12:07:08;15.27;;;6.72;;
71667;SDS011;59504;54.806;9.640;2023-02-28T12:10:01;16.20;;;7.00;;
71667;SDS011;59504;54.806;9.640;2023-02-28T12:12:42;15.57;;;5.85;;
71667;SDS011;59504;54.806;9.640;2023-02-28T12:34:49;9.93;;;5.53;;
71667;SDS011;59504;54.806;9.640;2023-02-28T12:37:29;11.20;;;5.10;;
71667;SDS011;59504;54.806;9.640;2023-02-28T12:40:04;12.05;;;4.72;;
71667;SDS011;59504;54.806;9.640;2023-02-28T12:42:32;14.98;;;5.05;;
71667;SDS011;59504;54.806;9.640;2023-02-28T12:45:01;12.02;;;5.18;;
71667;SDS011;59504;54.806;9.640;2023-02-28T12:47:25;8.90;;;4.30;;
71667;SDS011;59504;54.806;9.640;2023-02-28T12:49:46;11.05;;;4.72;;
71667;SDS011;59504;54.806;9.640;2023-02-28T13:01:50;10.23;;;5.00;;
71667;SDS011;59504;54.806;9.640;2023-02-28T13:04:08;9.23;;;4.53;;
71667;SDS011;59504;54.806;9.640;2023-02-28T13:11:01;10.57;;;4.00;;
71667;SDS011;59504;54.806;9.640;2023-02-28T13:13:02;14.60;;;4.95;;
71667;SDS011;59504;54.806;9.640;2023-02-28T13:15:17;8.25;;;4.47;;
71667;SDS011;59504;54.806;9.640;2023-02-28T13:17:22;10.88;;;4.57;;
71667;SDS011;59504;54.806;9.640;2023-02-28T13:19:27;10.10;;;4.75;;
71667;SDS011;59504;54.806;9.640;2023-02-28T13:21:30;8.80;;;5.10;;
71667;SDS011;59504;54.806;9.640;2023-02-28T13:25:50;15.52;;;5.85;;
71667;SDS011;59504;54.806;9.640;2023-02-28T13:27:53;16.13;;;5.03;;
71667;SDS011;59504;54.806;9.640;2023-02-28T13:29:56;10.65;;;5.53;;
71667;SDS011;59504;54.806;9.640;2023-02-28T13:34:06;9.18;;;4.82;;
71667;SDS011;59504;54.806;9.640;2023-02-28T13:38:17;13.00;;;5.90;;
71667;SDS011;59504;54.806;9.640;2023-02-28T13:40:32;16.45;;;6.20;;
71667;SDS011;59504;54.806;9.640;2023-02-28T13:42:46;11.45;;;5.55;;
71667;SDS011;59504;54.806;9.640;2023-02-28T13:51:36;12.63;;;5.15;;
71667;SDS011;59504;54.806;9.640;2023-02-28T13:53:53;12.02;;;4.93;;
71667;SDS011;59504;54.806;9.640;2023-02-28T13:56:27;8.57;;;4.90;;
71667;SDS011;59504;54.806;9.640;2023-02-28T14:06:18;8.75;;;5.53;;
71667;SDS011;59504;54.806;9.640;2023-02-28T14:08:46;13.23;;;5.72;;
71667;SDS011;59504;54.806;9.640;2023-02-28T14:11:24;10.45;;;5.78;;
71667;SDS011;59504;54.806;9.640;2023-02-28T14:13:47;10.40;;;5.20;;
71667;SDS011;59504;54.806;9.640;2023-02-28T14:16:07;11.25;;;5.45;;
71667;SDS011;59504;54.806;9.640;2023-02-28T14:21:36;14.68;;;5.72;;
71667;SDS011;59504;54.806;9.640;2023-02-28T14:26:43;9.77;;;6.00;;
71667;SDS011;59504;54.806;9.640;2023-02-28T14:31:57;13.07;;;6.05;;
71667;SDS011;59504;54.806;9.640;2023-02-28T14:34:26;11.07;;;6.50;;
71667;SDS011;59504;54.806;9.640;2023-02-28T14:36:58;12.00;;;5.97;;
71667;SDS011;59504;54.806;9.640;2023-02-28T14:39:25;9.70;;;5.65;;
71667;SDS011;59504;54.806;9.640;2023-02-28T14:41:47;27.85;;;5.68;;
71667;SDS011;59504;54.806;9.640;2023-02-28T14:46:38;11.88;;;5.80;;
71667;SDS011;59504;54.806;9.640;2023-02-28T14:49:01;16.17;;;5.88;;
71667;SDS011;59504;54.806;9.640;2023-02-28T14:51:26;11.85;;;6.00;;
71667;SDS011;59504;54.806;9.640;2023-02-28T14:53:51;11.07;;;6.13;;
71667;SDS011;59504;54.806;9.640;2023-02-28T14:56:27;10.60;;;5.95;;
71667;SDS011;59504;54.806;9.640;2023-02-28T14:58:59;16.30;;;7.10;;
71667;SDS011;59504;54.806;9.640;2023-02-28T15:01:21;15.13;;;6.95;;
71667;SDS011;59504;54.806;9.640;2023-02-28T15:03:42;14.57;;;6.35;;
71667;SDS011;59504;54.806;9.640;2023-02-28T15:06:05;12.40;;;6.60;;
71667;SDS011;59504;54.806;9.640;2023-02-28T15:08:32;17.17;;;6.68;;
71667;SDS011;59504;54.806;9.640;2023-02-28T15:10:59;13.77;;;7.00;;
71667;SDS011;59504;54.806;9.640;2023-02-28T15:13:21;13.48;;;7.20;;
71667;SDS011;59504;54.806;9.640;2023-02-28T15:15:59;13.18;;;6.90;;
71667;SDS011;59504;54.806;9.640;2023-02-28T15:20:47;15.38;;;7.40;;
71667;SDS011;59504;54.806;9.640;2023-02-28T15:23:08;13.18;;;6.30;;
71667;SDS011;59504;54.806;9.640;2023-02-28T15:25:29;12.10;;;6.88;;
71667;SDS011;59504;54.806;9.640;2023-02-28T15:27:49;13.50;;;7.10;;
71667;SDS011;59504;54.806;9.640;2023-02-28T15:30:15;13.32;;;6.68;;
71667;SDS011;59504;54.806;9.640;2023-02-28T15:32:38;12.43;;;6.47;;
71667;SDS011;59504;54.806;9.640;2023-02-28T15:34:59;12.60;;;6.65;;
71667;SDS011;59504;54.806;9.640;2023-02-28T15:37:56;12.75;;;6.35;;
71667;SDS011;59504;54.806;9.640;2023-02-28T15:40:25;12.48;;;6.68;;
71667;SDS011;59504;54.806;9.640;2023-02-28T15:45:45;12.32;;;7.20;;
71667;SDS011;59504;54.806;9.640;2023-02-28T15:48:17;13.30;;;7.57;;
71667;SDS011;59504;54.806;9.640;2023-02-28T15:50:39;15.00;;;7.70;;
71667;SDS011;59504;54.806;9.640;2023-02-28T15:52:59;13.60;;;7.07;;
71667;SDS011;59504;54.806;9.640;2023-02-28T15:55:23;12.65;;;6.97;;
71667;SDS011;59504;54.806;9.640;2023-02-28T15:57:47;15.07;;;6.97;;
71667;SDS011;59504;54.806;9.640;2023-02-28T16:00:11;14.70;;;6.73;;
71667;SDS011;59504;54.806;9.640;2023-02-28T16:02:33;17.42;;;6.35;;
71667;SDS011;59504;54.806;9.640;2023-02-28T16:04:57;17.27;;;7.47;;
71667;SDS011;59504;54.806;9.640;2023-02-28T16:07:37;13.05;;;7.15;;
71667;SDS011;59504;54.806;9.640;2023-02-28T16:09:57;16.17;;;6.60;;
71667;SDS011;59504;54.806;9.640;2023-02-28T16:12:16;12.65;;;6.78;;
71667;SDS011;59504;54.806;9.640;2023-02-28T16:14:36;15.88;;;6.95;;
71667;SDS011;59504;54.806;9.640;2023-02-28T16:17:02;14.48;;;6.82;;
71667;SDS011;59504;54.806;9.640;2023-02-28T16:19:27;12.55;;;6.32;;